Terminal Aerodrome Forecast
Issued by NWS

Current Version | Previous Version | Graphics & Text | Print | Product List | Glossary On
Versions: 1 2 3 4 5 6 7 8 9 10 11 12 13 14 15 16 17 18 19 20 21 22 23 24 25
434
FTUS41 KILN 150538
TAFLCK
TAF
KLCK 150538Z 1506/1606 22012KT P6SM -DZ OVC006
     FM151000 23012KT P6SM OVC012
     FM151500 23012KT P6SM VCSH OVC015
     FM152100 23013KT 4SM -SHRA OVC012=

USA.gov is the U.S. government's official web portal to all federal, state and local government web resources and services.